Time;durP1;ratioP1;P1;durP2;ratioP2;P2;SDS_P1;SDS_P2;PMS_P1;PMS_P2;Temp;Humidity;BMP_temperature;BMP_pressure;BME280_temperature;BME280_humidity;BME280_pressure;Samples;Min_cycle;Max_cycle;Signal;HPM_P1;HPM_P2
2021/04/18 00:01:30;;;;;;;1.38;0.50;;;;;;;26.15;27.53;96863.47;5043239;28;20373;-26
2021/04/18 00:03:55;;;;;;;1.83;0.93;;;;;;;26.15;27.77;96859.97;5049129;28;20029;-26
2021/04/18 00:06:21;;;;;;;2.47;0.82;;;;;;;26.15;27.78;96854.72;5048646;28;20028;-27
2021/04/18 00:08:47;;;;;;;0.93;0.50;;;;;;;26.15;27.56;96855.59;5047759;28;20121;-24
2021/04/18 00:11:12;;;;;;;4.13;0.80;;;;;;;26.15;27.71;96849.47;5047563;28;20036;-25
2021/04/18 00:13:38;;;;;;;1.33;0.38;;;;;;;26.14;27.63;96842.53;5045917;28;20047;-28
2021/04/18 00:16:03;;;;;;;2.15;0.65;;;;;;;26.14;27.63;96848.66;5047727;28;20040;-26
2021/04/18 00:18:29;;;;;;;0.55;0.40;;;;;;;26.10;27.53;96839.22;5050402;28;20060;-25
2021/04/18 00:20:56;;;;;;;4.00;0.75;;;;;;;26.15;27.65;96846.84;5050478;28;20036;-27
2021/04/18 00:23:21;;;;;;;1.67;0.60;;;;;;;26.14;27.60;96845.16;5047150;28;20036;-29
2021/04/18 00:25:46;;;;;;;1.65;0.50;;;;;;;26.14;27.71;96843.38;5061039;28;20438;-29
2021/04/18 00:28:12;;;;;;;0.65;0.43;;;;;;;26.12;27.61;96837.34;5052311;28;20041;-26
2021/04/18 00:30:37;;;;;;;2.20;0.73;;;;;;;26.12;27.62;96842.59;5045190;28;20033;-27
2021/04/18 00:33:03;;;;;;;1.42;0.40;;;;;;;26.14;27.53;96842.53;5051319;28;20029;-24
2021/04/18 00:35:28;;;;;;;6.80;1.02;;;;;;;26.13;27.51;96835.59;5046696;28;20035;-28
2021/04/18 00:37:54;;;;;;;4.82;0.82;;;;;;;26.12;27.53;96834.72;5048954;28;20447;-28
2021/04/18 00:40:21;;;;;;;2.90;0.82;;;;;;;26.12;27.43;96834.72;5048219;28;20220;-25
2021/04/18 00:42:46;;;;;;;1.17;0.57;;;;;;;26.11;27.53;96833.03;5050750;28;20544;-26
2021/04/18 00:45:12;;;;;;;2.40;0.50;;;;;;;26.10;27.54;96832.19;5050155;28;20152;-28
2021/04/18 00:47:47;;;;;;;1.33;0.40;;;;;;;26.11;27.71;96825.16;5045602;28;20031;-30
2021/04/18 00:50:25;;;;;;;1.00;0.68;;;;;;;26.11;27.56;96833.03;5044123;28;20021;-23
2021/04/18 00:52:51;;;;;;;1.67;0.60;;;;;;;26.10;27.51;96836.59;5049707;28;20077;-26
2021/04/18 00:55:17;;;;;;;1.20;0.57;;;;;;;26.09;27.56;96825.25;5048665;28;20024;-27
2021/04/18 00:57:43;;;;;;;1.20;0.60;;;;;;;26.09;27.71;96824.41;5055210;28;20071;-27
2021/04/18 01:00:08;;;;;;;2.45;0.70;;;;;;;26.09;27.63;96825.25;5045538;28;20028;-26
2021/04/18 01:02:34;;;;;;;1.35;0.60;;;;;;;26.09;27.51;96830.50;5048906;28;20716;-25
2021/04/18 01:05:00;;;;;;;1.35;0.50;;;;;;;26.08;27.76;96823.56;5049629;28;20021;-25
2021/04/18 01:07:26;;;;;;;0.43;0.43;;;;;;;26.09;27.65;96829.66;5029457;28;20017;-29
2021/04/18 01:09:52;;;;;;;1.50;0.55;;;;;;;26.07;27.62;96816.63;5049140;28;20033;-26
2021/04/18 01:12:17;;;;;;;1.42;0.57;;;;;;;26.09;27.69;96819.16;5044477;28;20020;-27
2021/04/18 01:14:42;;;;;;;1.27;0.70;;;;;;;26.09;27.68;96814.72;5052339;28;20040;-28
2021/04/18 01:17:08;;;;;;;1.00;0.47;;;;;;;26.09;27.66;96809.47;5049135;28;20563;-25
2021/04/18 01:19:33;;;;;;;3.00;0.70;;;;;;;26.09;27.64;96806.84;5045941;28;20036;-31
2021/04/18 01:22:01;;;;;;;1.05;0.57;;;;;;;26.09;27.64;96814.72;5047516;28;20897;-24
2021/04/18 01:24:26;;;;;;;1.20;0.45;;;;;;;26.09;27.66;96806.84;5049684;28;20035;-23
2021/04/18 01:26:54;;;;;;;1.67;0.60;;;;;;;26.09;27.53;96806.03;5044314;28;20034;-28
2021/04/18 01:29:19;;;;;;;1.08;0.57;;;;;;;26.09;27.70;96808.66;5042541;28;20029;-27
2021/04/18 01:31:45;;;;;;;0.80;0.30;;;;;;;26.09;27.55;96809.47;5044389;28;20047;-27
2021/04/18 01:34:14;;;;;;;1.08;0.43;;;;;;;26.08;27.65;96805.16;5047670;28;20443;-26
2021/04/18 01:36:46;;;;;;;1.55;0.65;;;;;;;26.08;27.54;96807.78;5043289;28;20108;-26
2021/04/18 01:39:12;;;;;;;0.80;0.38;;;;;;;26.08;27.70;96801.69;5047129;28;20119;-23
2021/04/18 01:41:38;;;;;;;0.95;0.45;;;;;;;26.08;27.63;96797.28;5047291;28;20443;-27
2021/04/18 01:44:04;;;;;;;0.98;0.50;;;;;;;26.08;27.56;96806.94;5044130;28;20037;-27
2021/04/18 01:46:30;;;;;;;0.63;0.40;;;;;;;26.07;27.65;96803.47;5048502;28;20048;-28
2021/04/18 01:48:55;;;;;;;1.88;0.47;;;;;;;26.03;27.54;96799.31;5050253;28;20639;-27
2021/04/18 01:51:24;;;;;;;2.20;0.68;;;;;;;26.07;27.68;96800.84;5049462;28;20270;-24
2021/04/18 01:53:49;;;;;;;0.65;0.50;;;;;;;26.07;27.74;96800.00;5046965;28;20096;-26
2021/04/18 01:56:15;;;;;;;1.77;0.50;;;;;;;26.07;27.67;96786.88;5043840;28;20567;-25
2021/04/18 01:58:40;;;;;;;1.00;0.40;;;;;;;26.07;27.76;96792.97;5047101;28;20047;-27
2021/04/18 02:01:05;;;;;;;0.47;0.47;;;;;;;26.07;27.60;96781.63;5043116;28;20031;-27
2021/04/18 02:03:31;;;;;;;0.45;0.30;;;;;;;26.06;27.65;96791.28;5047506;28;20676;-26
2021/04/18 02:05:56;;;;;;;1.38;0.52;;;;;;;26.06;27.64;96793.91;5048421;28;20024;-25
2021/04/18 02:08:21;;;;;;;2.65;0.40;;;;;;;26.05;27.60;96791.38;5043628;28;20029;-27
2021/04/18 02:10:47;;;;;;;0.85;0.35;;;;;;;26.05;27.51;96794.81;5044949;28;20607;-22
2021/04/18 02:13:12;;;;;;;1.10;0.57;;;;;;;26.06;27.77;96793.91;5044595;28;20033;-26
2021/04/18 02:15:38;;;;;;;1.20;0.60;;;;;;;26.06;27.64;96791.28;5049498;28;20159;-28
2021/04/18 02:18:03;;;;;;;0.65;0.30;;;;;;;26.05;27.70;96792.19;5046575;28;20992;-26
2021/04/18 02:20:28;;;;;;;2.53;0.52;;;;;;;26.05;27.58;96792.19;5042999;28;20036;-27
2021/04/18 02:22:54;;;;;;;0.75;0.50;;;;;;;26.05;27.60;96792.19;5046636;28;20040;-24
2021/04/18 02:25:19;;;;;;;2.35;0.63;;;;;;;26.04;27.79;96790.50;5048540;28;20667;-27
2021/04/18 02:27:45;;;;;;;0.50;0.25;;;;;;;26.05;27.71;96794.81;5044214;28;20725;-27
2021/04/18 02:30:10;;;;;;;0.65;0.40;;;;;;;26.06;27.75;96793.06;5043963;28;20055;-27
2021/04/18 02:32:36;;;;;;;1.02;0.57;;;;;;;26.05;27.69;96794.00;5047156;28;20541;-26
2021/04/18 02:35:03;;;;;;;0.70;0.60;;;;;;;26.05;27.65;96794.81;5047067;28;20036;-26
2021/04/18 02:37:28;;;;;;;0.98;0.50;;;;;;;26.05;27.66;96794.00;5047010;28;20070;-28
2021/04/18 02:39:53;;;;;;;0.35;0.30;;;;;;;26.04;27.73;96795.75;5047390;28;20037;-28
2021/04/18 02:42:19;;;;;;;0.55;0.45;;;;;;;26.04;27.69;96795.75;5046620;28;20916;-25
2021/04/18 02:44:44;;;;;;;1.05;0.40;;;;;;;26.04;27.58;96794.91;5045864;28;20554;-24
2021/04/18 02:47:10;;;;;;;0.75;0.47;;;;;;;26.04;27.75;96793.13;5047010;28;20197;-24
2021/04/18 02:49:35;;;;;;;2.45;0.50;;;;;;;26.04;27.76;96797.53;5044869;28;20041;-28
2021/04/18 02:52:01;;;;;;;1.50;0.30;;;;;;;26.03;27.65;96791.44;5048506;28;20024;-26
2021/04/18 02:54:26;;;;;;;0.35;0.30;;;;;;;26.03;27.70;96791.44;5044626;28;20036;-28
2021/04/18 02:56:52;;;;;;;0.93;0.40;;;;;;;26.04;27.70;96794.91;5043796;28;22052;-26
2021/04/18 02:59:17;;;;;;;0.28;0.20;;;;;;;26.03;27.69;96788.81;5051225;28;20110;-27
2021/04/18 03:01:42;;;;;;;0.43;0.35;;;;;;;26.03;27.54;96794.06;5050447;28;20093;-28
2021/04/18 03:04:08;;;;;;;1.00;0.50;;;;;;;26.04;27.66;96789.66;5047866;28;20032;-29
2021/04/18 03:06:34;;;;;;;0.45;0.30;;;;;;;26.03;27.61;96788.81;5050249;28;20477;-30
2021/04/18 03:09:00;;;;;;;1.40;0.43;;;;;;;26.03;27.63;96787.97;5052155;28;20064;-28
2021/04/18 03:11:25;;;;;;;0.68;0.40;;;;;;;26.02;27.72;96792.38;5048390;28;20032;-25
2021/04/18 03:13:50;;;;;;;1.63;0.47;;;;;;;26.01;27.71;96790.66;5049363;28;20032;-28
2021/04/18 03:16:16;;;;;;;0.68;0.50;;;;;;;26.02;27.77;96792.38;5052001;28;20480;-24
2021/04/18 03:18:41;;;;;;;0.68;0.38;;;;;;;26.01;27.68;96790.66;5049502;28;20039;-28
2021/04/18 03:21:07;;;;;;;0.30;0.20;;;;;;;26.01;27.68;96788.03;5048872;28;20029;-25
2021/04/18 03:23:32;;;;;;;0.73;0.40;;;;;;;26.02;27.59;96792.38;5047428;28;20446;-26
2021/04/18 03:25:58;;;;;;;0.43;0.30;;;;;;;26.02;27.60;96792.38;5048868;28;20520;-27
2021/04/18 03:28:23;;;;;;;1.55;0.40;;;;;;;26.02;27.63;96796.78;5050693;28;20051;-29
2021/04/18 03:30:49;;;;;;;2.13;0.28;;;;;;;26.00;27.62;96788.97;5047399;28;20037;-28
2021/04/18 03:33:14;;;;;;;0.73;0.32;;;;;;;26.01;27.51;96795.91;5051170;28;20051;-25
2021/04/18 03:35:39;;;;;;;0.73;0.30;;;;;;;26.01;27.81;96788.03;5027291;28;20110;-28
2021/04/18 03:38:05;;;;;;;0.70;0.30;;;;;;;26.01;27.72;96789.84;5048032;28;20025;-29
2021/04/18 03:40:31;;;;;;;0.35;0.35;;;;;;;26.00;27.69;96783.72;5049656;28;20028;-29
2021/04/18 03:42:56;;;;;;;0.47;0.30;;;;;;;26.01;27.67;96789.84;5049113;28;20043;-22
2021/04/18 03:45:22;;;;;;;1.52;0.40;;;;;;;26.00;27.67;96783.72;5050511;28;20033;-24
2021/04/18 03:47:48;;;;;;;2.05;0.70;;;;;;;26.01;27.53;96787.22;5044558;28;20056;-22
2021/04/18 03:50:14;;;;;;;0.30;0.30;;;;;;;26.00;27.70;96786.34;5045743;28;20043;-31
2021/04/18 03:52:39;;;;;;;0.70;0.30;;;;;;;26.01;27.61;96785.41;5050445;28;20601;-26
2021/04/18 03:55:05;;;;;;;0.20;0.20;;;;;;;26.00;27.64;96786.34;5048047;28;20037;-22
2021/04/18 03:57:30;;;;;;;1.67;0.40;;;;;;;26.00;27.73;96786.34;5046195;28;20040;-27
2021/04/18 03:59:56;;;;;;;0.35;0.20;;;;;;;26.00;27.72;96782.91;5047018;28;20033;-29
2021/04/18 04:02:21;;;;;;;0.22;0.20;;;;;;;26.00;27.56;96783.72;5048704;28;20085;-27
2021/04/18 04:04:47;;;;;;;0.25;0.25;;;;;;;26.01;27.56;96774.91;5023414;28;20032;-27
2021/04/18 04:07:12;;;;;;;1.23;0.25;;;;;;;26.00;27.60;96782.91;5050134;28;20075;-24
2021/04/18 04:09:38;;;;;;;0.52;0.30;;;;;;;26.00;27.75;96783.72;5050958;28;20024;-26
2021/04/18 04:12:05;;;;;;;1.33;0.30;;;;;;;26.00;27.78;96783.72;5047704;28;20113;-29
2021/04/18 04:14:30;;;;;;;0.73;0.30;;;;;;;26.00;27.79;96783.72;5051108;28;20025;-31
2021/04/18 04:16:55;;;;;;;0.20;0.20;;;;;;;26.00;27.62;96785.53;5050230;28;20048;-22
2021/04/18 04:19:21;;;;;;;0.63;0.35;;;;;;;25.99;27.73;96787.28;5045495;28;20032;-29
2021/04/18 04:21:46;;;;;;;0.55;0.30;;;;;;;25.99;27.65;96787.28;5048114;28;20033;-30
2021/04/18 04:24:12;;;;;;;0.68;0.30;;;;;;;25.98;27.65;96780.34;5047015;28;20058;-24
2021/04/18 04:26:37;;;;;;;0.30;0.25;;;;;;;26.00;27.61;96788.97;5046829;28;20667;-28
2021/04/18 04:29:03;;;;;;;0.90;0.30;;;;;;;25.99;27.63;96782.03;5049342;28;20041;-26
2021/04/18 04:31:28;;;;;;;0.75;0.30;;;;;;;25.97;27.75;96783.88;5050031;28;20040;-25
2021/04/18 04:33:53;;;;;;;0.80;0.30;;;;;;;25.98;27.64;96790.00;5046746;28;20047;-26
2021/04/18 04:36:19;;;;;;;0.57;0.28;;;;;;;25.97;27.67;96797.00;5047236;28;20334;-25
2021/04/18 04:38:45;;;;;;;0.55;0.30;;;;;;;25.98;27.75;96796.09;5046461;28;20032;-30
2021/04/18 04:41:10;;;;;;;0.17;0.17;;;;;;;25.97;27.64;96794.38;5046210;28;20063;-29
2021/04/18 04:43:35;;;;;;;1.27;0.20;;;;;;;25.96;27.64;96797.94;5047703;28;20123;-26
2021/04/18 04:46:01;;;;;;;0.88;0.30;;;;;;;25.96;27.73;96804.06;5049945;28;20393;-27
2021/04/18 04:48:26;;;;;;;0.30;0.30;;;;;;;25.97;27.78;96804.88;5048479;28;20033;-28
2021/04/18 04:50:52;;;;;;;1.10;0.30;;;;;;;25.97;27.73;96804.88;5045429;28;20035;-25
2021/04/18 04:53:17;;;;;;;0.25;0.20;;;;;;;25.97;27.66;96804.88;5046776;28;20036;-26
2021/04/18 04:55:45;;;;;;;0.35;0.20;;;;;;;25.97;27.67;96810.13;5047509;28;20054;-27
2021/04/18 04:58:10;;;;;;;0.73;0.22;;;;;;;25.96;27.77;96808.44;5048924;28;20024;-28
2021/04/18 05:00:35;;;;;;;0.73;0.30;;;;;;;25.96;27.67;96813.69;5061674;28;20036;-25
2021/04/18 05:03:01;;;;;;;0.80;0.30;;;;;;;25.96;27.89;96808.44;5048654;28;20603;-27
2021/04/18 05:05:26;;;;;;;0.75;0.30;;;;;;;25.95;27.75;96807.63;5046727;28;20033;-26
2021/04/18 05:07:52;;;;;;;0.38;0.28;;;;;;;25.95;27.64;96812.00;5028373;28;20025;-27
2021/04/18 05:10:17;;;;;;;0.40;0.25;;;;;;;25.95;27.62;96818.13;5044800;28;20028;-28
2021/04/18 05:12:42;;;;;;;0.30;0.30;;;;;;;25.94;27.72;96816.41;5049183;28;20020;-26
2021/04/18 05:15:09;;;;;;;0.20;0.20;;;;;;;25.94;27.67;96810.31;5047639;28;20809;-23
2021/04/18 05:17:34;;;;;;;0.20;0.20;;;;;;;25.94;27.77;96815.56;5048599;28;20036;-26
2021/04/18 05:19:59;;;;;;;0.30;0.30;;;;;;;25.95;27.74;96817.25;5041952;28;20021;-27
2021/04/18 05:22:25;;;;;;;0.50;0.28;;;;;;;25.94;27.79;96818.19;5041305;28;20488;-28
2021/04/18 05:24:50;;;;;;;0.20;0.10;;;;;;;25.94;27.68;96819.03;5049268;28;20039;-29
2021/04/18 05:27:16;;;;;;;0.80;0.30;;;;;;;25.95;27.80;96822.50;5044629;28;20032;-30
2021/04/18 05:29:41;;;;;;;0.35;0.20;;;;;;;25.94;27.72;96823.44;5044866;28;20024;-28
2021/04/18 05:32:07;;;;;;;0.70;0.38;;;;;;;25.94;27.78;96826.06;5045972;28;20056;-33
2021/04/18 05:34:32;;;;;;;0.57;0.30;;;;;;;25.93;27.75;96825.22;5047604;28;20960;-26
2021/04/18 05:37:00;;;;;;;1.15;0.30;;;;;;;25.93;27.85;96827.00;5046875;28;20099;-29
2021/04/18 05:39:25;;;;;;;0.30;0.20;;;;;;;25.94;27.75;96831.31;5046203;28;20590;-28
2021/04/18 05:41:51;;;;;;;2.22;0.40;;;;;;;25.94;27.83;96826.06;5044589;28;20024;-26
2021/04/18 05:44:16;;;;;;;0.20;0.20;;;;;;;25.93;27.82;96829.63;5048121;28;20021;-25
2021/04/18 05:46:42;;;;;;;0.50;0.30;;;;;;;25.94;27.75;96833.94;5046948;28;20206;-27
2021/04/18 05:49:07;;;;;;;1.33;0.20;;;;;;;25.93;27.84;96832.25;5040365;28;20047;-27
2021/04/18 05:51:33;;;;;;;0.28;0.28;;;;;;;25.93;27.64;96834.88;5045990;28;20552;-25
2021/04/18 05:53:58;;;;;;;0.30;0.30;;;;;;;25.93;27.82;96837.50;5046589;28;20315;-25
2021/04/18 05:56:23;;;;;;;0.40;0.20;;;;;;;25.92;27.87;96828.78;5044038;28;20036;-27
2021/04/18 05:58:49;;;;;;;0.52;0.30;;;;;;;25.92;27.69;96835.78;5045902;28;20051;-31
2021/04/18 06:01:14;;;;;;;0.50;0.20;;;;;;;25.92;27.68;96827.91;5048226;28;20522;-25
2021/04/18 06:03:40;;;;;;;0.20;0.20;;;;;;;25.91;27.69;96832.34;5049163;28;20028;-26
2021/04/18 06:06:05;;;;;;;1.63;0.40;;;;;;;25.92;27.81;96833.16;5048207;28;20070;-28
2021/04/18 06:08:31;;;;;;;0.32;0.30;;;;;;;25.92;27.75;96835.78;5047717;28;20029;-23
2021/04/18 06:10:56;;;;;;;1.50;0.40;;;;;;;25.91;27.88;96836.72;5048638;28;20033;-29
2021/04/18 06:13:21;;;;;;;1.35;0.20;;;;;;;25.91;27.74;96844.59;5048680;28;20036;-29
2021/04/18 06:15:47;;;;;;;0.30;0.30;;;;;;;25.91;27.83;96840.22;5046600;28;20034;-24
2021/04/18 06:18:13;;;;;;;0.32;0.30;;;;;;;25.91;27.87;96845.47;5047912;28;20036;-25
2021/04/18 06:20:38;;;;;;;0.98;0.20;;;;;;;25.90;27.66;96837.66;5042835;28;20031;-27
2021/04/18 06:23:03;;;;;;;0.60;0.30;;;;;;;25.90;27.88;96840.28;5044919;28;20206;-25
2021/04/18 06:25:29;;;;;;;1.00;0.30;;;;;;;25.90;27.83;96835.03;5046373;28;20098;-28
2021/04/18 06:27:54;;;;;;;0.30;0.30;;;;;;;25.90;27.80;96835.03;5047524;28;20044;-27
2021/04/18 06:30:20;;;;;;;2.05;0.50;;;;;;;25.90;27.78;96838.50;5046571;28;20029;-24
2021/04/18 06:32:45;;;;;;;0.82;0.43;;;;;;;25.89;27.72;96838.59;5046224;28;20021;-24
2021/04/18 06:35:11;;;;;;;1.40;0.60;;;;;;;25.90;27.92;96835.03;5044382;28;20028;-26
2021/04/18 06:37:37;;;;;;;3.85;0.80;;;;;;;25.90;27.80;96840.28;5040876;28;20025;-27
2021/04/18 06:40:04;;;;;;;12.43;1.77;;;;;;;25.90;27.85;96835.03;5045267;28;20062;-26
2021/04/18 06:42:30;;;;;;;11.02;1.70;;;;;;;25.88;27.88;96831.63;5048164;28;20028;-27
2021/04/18 06:44:58;;;;;;;9.93;1.40;;;;;;;25.87;28.01;96835.19;5043998;28;20032;-25
2021/04/18 06:47:23;;;;;;;9.35;1.88;;;;;;;25.85;27.74;96843.16;5023795;28;20021;-26
2021/04/18 06:49:49;;;;;;;14.15;1.90;;;;;;;25.85;27.51;96843.16;5022638;28;20078;-26
2021/04/18 06:52:14;;;;;;;8.18;2.65;;;;;;;25.84;27.49;96841.47;5041451;28;20033;-24
2021/04/18 06:54:39;;;;;;;12.43;2.72;;;;;;;25.81;27.16;96847.72;5044192;28;20044;-28
2021/04/18 06:57:05;;;;;;;3.95;2.10;;;;;;;25.79;26.86;96843.47;5041853;28;20029;-24
2021/04/18 06:59:37;;;;;;;5.30;2.20;;;;;;;25.75;26.62;96840.19;5038114;28;20187;-26
2021/04/18 07:02:04;;;;;;;6.25;2.35;;;;;;;25.73;26.62;96839.41;5038604;28;20293;-25
2021/04/18 07:04:30;;;;;;;6.57;2.33;;;;;;;25.71;26.54;96841.25;5030495;28;20124;-26
2021/04/18 07:06:57;;;;;;;4.18;2.08;;;;;;;25.68;26.48;96844.03;5040075;28;20682;-27
2021/04/18 07:09:23;;;;;;;4.30;2.30;;;;;;;25.66;26.40;96844.13;5040617;28;20031;-25
2021/04/18 07:11:53;;;;;;;2.53;2.10;;;;;;;25.64;26.28;96845.97;5036598;28;20036;-28
2021/04/18 07:14:21;;;;;;;4.75;2.40;;;;;;;25.63;26.28;96846.06;5043100;28;20035;-25
2021/04/18 07:16:47;;;;;;;4.07;2.13;;;;;;;25.60;26.32;96833.94;5041040;28;20036;-25
2021/04/18 07:19:39;;;;;;;4.22;2.47;;;;;;;25.57;26.04;96840.22;5038648;28;20138;-25
2021/04/18 07:22:06;;;;;;;7.28;3.10;;;;;;;25.55;26.23;96839.38;5034578;28;20275;-24
2021/04/18 07:24:32;;;;;;;4.85;2.60;;;;;;;25.54;26.22;96836.84;5038445;28;20051;-29
2021/04/18 07:27:02;;;;;;;3.35;2.30;;;;;;;25.52;25.91;96842.16;5035852;28;20017;-27
2021/04/18 07:29:29;;;;;;;3.97;2.45;;;;;;;25.50;25.96;96833.53;5039113;28;20376;-28
2021/04/18 07:31:58;;;;;;;5.32;2.50;;;;;;;25.48;25.79;96834.53;5038333;28;20037;-27
2021/04/18 07:34:24;;;;;;;6.63;3.30;;;;;;;25.47;25.88;96836.31;5038320;28;22073;-24
2021/04/18 07:37:12;;;;;;;5.57;3.70;;;;;;;25.47;25.91;96833.69;5017662;28;20066;-28
2021/04/18 07:39:46;;;;;;;5.60;3.00;;;;;;;25.44;25.97;96834.69;5037866;28;20139;-26
2021/04/18 07:42:37;;;;;;;4.60;2.92;;;;;;;25.44;25.64;96845.19;5039411;28;21860;-25
2021/04/18 07:45:23;;;;;;;3.78;2.67;;;;;;;25.43;25.81;96832.13;5040605;28;20067;-25
2021/04/18 07:47:48;;;;;;;4.47;2.55;;;;;;;25.41;25.91;96834.00;5036791;28;20028;-26
2021/04/18 07:50:21;;;;;;;7.65;2.90;;;;;;;25.40;25.69;96833.16;5039940;28;20043;-24
2021/04/18 07:52:47;;;;;;;6.03;2.80;;;;;;;25.39;25.73;96835.84;5040986;28;20512;-26
2021/04/18 07:55:13;;;;;;;6.75;2.47;;;;;;;25.38;25.86;96832.38;5041329;28;21008;-21
2021/04/18 07:57:39;;;;;;;5.90;3.00;;;;;;;25.37;25.88;96827.22;5040396;28;20492;-25
2021/04/18 08:00:06;;;;;;;5.00;3.05;;;;;;;25.37;25.78;96832.47;5040587;28;20032;-26
2021/04/18 08:02:31;;;;;;;6.57;3.03;;;;;;;25.36;25.78;96828.97;5043857;28;20115;-26
2021/04/18 08:04:57;;;;;;;4.35;2.78;;;;;;;25.36;25.92;96828.97;5037535;28;20063;-22
2021/04/18 08:07:23;;;;;;;5.05;2.60;;;;;;;25.37;25.91;96832.47;5040156;28;20554;-28
2021/04/18 08:09:52;;;;;;;6.60;2.72;;;;;;;25.36;25.84;96836.03;5039993;28;20024;-26
2021/04/18 08:12:18;;;;;;;7.00;3.25;;;;;;;25.36;25.60;96836.84;5019141;28;20075;-26
2021/04/18 08:14:45;;;;;;;4.80;2.42;;;;;;;25.35;25.83;96834.34;5046963;28;20134;-26
2021/04/18 08:17:12;;;;;;;6.22;3.20;;;;;;;25.35;25.52;96834.34;5042851;28;20801;-25
2021/04/18 08:19:37;;;;;;;7.28;4.40;;;;;;;25.34;25.58;96829.97;5039838;28;20055;-27
2021/04/18 08:22:03;;;;;;;5.80;3.58;;;;;;;25.33;25.61;96837.03;5045172;28;20602;-27
2021/04/18 08:24:30;;;;;;;7.47;3.30;;;;;;;25.34;25.76;96832.59;5048291;28;20028;-28
2021/04/18 08:27:03;;;;;;;4.75;2.70;;;;;;;25.34;25.57;96837.84;5048869;28;20028;-24
2021/04/18 08:29:29;;;;;;;4.38;2.67;;;;;;;25.34;25.62;96832.59;5042055;28;20204;-28
2021/04/18 08:31:56;;;;;;;5.10;1.85;;;;;;;25.35;25.98;96834.34;5044861;28;20056;-26
2021/04/18 08:34:36;;;;;;;5.47;2.28;;;;;;;25.36;26.20;96841.25;5042401;28;20916;-26
2021/04/18 08:37:02;;;;;;;5.07;1.65;;;;;;;25.38;26.29;96840.25;5041391;28;20035;-27
2021/04/18 08:39:38;;;;;;;6.80;1.98;;;;;;;25.40;26.38;96842.81;5041486;28;20086;-26
2021/04/18 08:42:05;;;;;;;4.75;1.50;;;;;;;25.41;26.59;96842.75;5037755;28;20056;-25
2021/04/18 08:44:42;;;;;;;5.22;1.83;;;;;;;25.44;26.42;96844.34;5036421;28;20531;-23
2021/04/18 08:47:10;;;;;;;4.18;1.40;;;;;;;25.45;26.75;96846.03;5054673;28;20153;-25
2021/04/18 08:49:43;;;;;;;3.00;1.50;;;;;;;25.48;26.74;96839.78;5061392;28;20029;-27
2021/04/18 08:52:19;;;;;;;2.67;1.67;;;;;;;25.45;26.95;96840.78;5057389;28;20082;-24
2021/04/18 08:54:45;;;;;;;4.07;1.95;;;;;;;25.49;26.92;96844.97;5061549;28;20105;-29
2021/04/18 08:57:18;;;;;;;6.13;2.63;;;;;;;25.52;26.65;96849.19;5058872;28;20044;-26
2021/04/18 08:59:48;;;;;;;13.15;4.18;;;;;;;25.48;25.69;96845.91;5063641;28;20044;-26
2021/04/18 09:02:14;;;;;;;14.27;4.60;;;;;;;25.36;24.64;96854.38;5058142;28;20047;-26
2021/04/18 09:04:42;;;;;;;10.70;3.50;;;;;;;25.22;24.38;96850.69;5071156;28;20028;-26
2021/04/18 09:07:09;;;;;;;9.48;3.50;;;;;;;25.12;24.54;96852.03;5061786;28;20024;-26
2021/04/18 09:09:35;;;;;;;11.60;3.00;;;;;;;25.05;25.04;96849.72;5059169;28;20496;-23
2021/04/18 09:12:01;;;;;;;6.45;2.42;;;;;;;25.03;25.13;96850.72;5051752;28;20080;-25
2021/04/18 09:14:28;;;;;;;11.63;2.40;;;;;;;25.03;25.23;96853.34;5058508;28;20527;-26
2021/04/18 09:17:05;;;;;;;12.20;2.40;;;;;;;25.02;25.39;96852.50;5065177;28;20031;-28
2021/04/18 09:19:31;;;;;;;14.60;2.03;;;;;;;25.04;25.37;96860.28;5062288;28;20032;-26
2021/04/18 09:22:13;;;;;;;9.32;2.20;;;;;;;25.07;25.71;96861.91;5060484;28;20040;-27
2021/04/18 09:24:43;;;;;;;8.13;1.85;;;;;;;25.10;25.53;96856.53;5064844;28;20597;-25
2021/04/18 09:27:17;;;;;;;4.90;1.88;;;;;;;25.12;25.66;96858.16;5063801;28;20091;-25
2021/04/18 09:29:47;;;;;;;7.53;2.22;;;;;;;25.14;25.75;96856.28;5068746;28;20028;-29
2021/04/18 09:32:17;;;;;;;5.05;2.08;;;;;;;25.17;25.82;96847.44;5060546;28;20028;-24
2021/04/18 09:34:43;;;;;;;4.95;1.90;;;;;;;25.20;25.91;96852.50;5065015;28;20028;-26
2021/04/18 09:37:13;;;;;;;2.95;1.60;;;;;;;25.22;26.17;96850.69;5064535;28;20024;-24
2021/04/18 09:39:38;;;;;;;6.13;1.95;;;;;;;25.25;25.94;96857.53;5060741;28;20027;-26
2021/04/18 09:42:05;;;;;;;7.00;1.90;;;;;;;25.28;26.16;96854.78;5063642;28;20082;-25
2021/04/18 09:44:40;;;;;;;4.80;1.80;;;;;;;25.30;26.15;96853.78;5063460;28;20079;-29
2021/04/18 09:47:07;;;;;;;5.68;1.60;;;;;;;25.34;26.08;96856.22;5059626;28;20047;-29
2021/04/18 09:49:44;;;;;;;3.53;1.42;;;;;;;25.36;26.27;96859.63;5065896;28;20032;-23
2021/04/18 09:52:09;;;;;;;5.45;1.80;;;;;;;25.38;26.20;96863.00;5061433;28;20760;-24
2021/04/18 09:54:35;;;;;;;5.45;1.88;;;;;;;25.39;26.32;96857.69;5070504;28;20035;-28
2021/04/18 09:57:14;;;;;;;3.85;1.77;;;;;;;25.41;26.33;96855.84;5066208;28;20032;-28
2021/04/18 09:59:39;;;;;;;3.17;1.45;;;;;;;25.44;26.29;96862.72;5066918;28;20038;-28
2021/04/18 10:02:14;;;;;;;4.07;1.75;;;;;;;25.45;26.44;96860.00;5066248;28;20647;-27
2021/04/18 10:04:40;;;;;;;3.13;1.30;;;;;;;25.46;26.41;96863.47;5063688;28;20412;-26
2021/04/18 10:07:06;;;;;;;3.72;1.85;;;;;;;25.48;26.54;96855.53;5065168;28;20030;-27
2021/04/18 10:09:53;;;;;;;7.53;2.03;;;;;;;25.49;26.58;96855.47;5066060;28;20032;-26
2021/04/18 10:12:20;;;;;;;3.28;1.42;;;;;;;25.51;26.64;96861.47;5067174;28;20039;-26
2021/04/18 10:14:59;;;;;;;3.80;1.40;;;;;;;25.52;26.52;96862.31;5065811;28;20314;-28
2021/04/18 10:17:32;;;;;;;3.67;1.35;;;;;;;25.53;26.58;96856.13;5064303;28;20708;-21
2021/04/18 10:19:58;;;;;;;4.50;1.60;;;;;;;25.52;26.67;96857.91;5064097;28;20032;-27
2021/04/18 10:22:23;;;;;;;3.05;1.35;;;;;;;25.54;26.61;96856.06;5062747;28;20030;-26
2021/04/18 10:24:52;;;;;;;1.90;1.10;;;;;;;25.55;26.67;96857.75;5066933;28;20024;-24
2021/04/18 10:27:22;;;;;;;3.08;1.55;;;;;;;25.57;26.79;96855.94;5067650;28;20020;-26
2021/04/18 10:29:47;;;;;;;2.10;1.30;;;;;;;25.57;26.76;96848.06;5064307;28;20052;-25
2021/04/18 10:32:13;;;;;;;3.67;1.40;;;;;;;25.58;26.86;96846.28;5065536;28;20064;-26
2021/04/18 10:34:39;;;;;;;3.83;1.38;;;;;;;25.60;26.71;96848.84;5066937;28;20434;-26
2021/04/18 10:37:04;;;;;;;3.38;1.50;;;;;;;25.60;26.69;96839.19;5065769;28;20047;-27
2021/04/18 10:39:31;;;;;;;5.35;1.30;;;;;;;25.62;26.83;96841.75;5069844;28;20543;-25
2021/04/18 10:41:56;;;;;;;3.22;1.30;;;;;;;25.62;26.84;96847.00;5064202;28;20028;-25
2021/04/18 10:44:21;;;;;;;4.28;1.70;;;;;;;25.63;26.96;96839.00;5064417;28;20032;-25
2021/04/18 10:46:53;;;;;;;2.90;1.40;;;;;;;25.64;26.97;96840.75;5065453;28;20052;-25
2021/04/18 10:49:19;;;;;;;;;;;;;;;25.65;26.84;96841.56;5065112;28;20127;-28
2021/04/18 10:51:44;;;;;;;1.92;1.08;;;;;;;25.67;26.96;96842.34;5064518;28;19924;-23
2021/04/18 10:54:09;;;;;;;3.13;1.23;;;;;;;25.68;27.11;96836.16;5063307;28;20404;-26
2021/04/18 10:56:36;;;;;;;3.28;1.42;;;;;;;25.67;26.94;96831.84;5066691;28;20024;-25
2021/04/18 10:59:01;;;;;;;2.33;1.33;;;;;;;25.64;27.15;96821.50;5063364;28;20044;-26
2021/04/18 11:01:27;;;;;;;3.72;1.40;;;;;;;25.69;27.06;96832.59;5063722;28;20032;-24
2021/04/18 11:03:53;;;;;;;2.78;1.42;;;;;;;25.69;27.09;96833.47;5065003;28;20440;-24
2021/04/18 11:06:18;;;;;;;4.50;1.67;;;;;;;25.70;27.13;96834.28;5064239;28;20150;-25
2021/04/18 11:08:43;;;;;;;3.40;1.13;;;;;;;25.70;27.10;96834.28;5065715;28;20032;-29
2021/04/18 11:11:10;;;;;;;3.95;1.35;;;;;;;25.71;27.07;96830.78;5064057;28;20044;-28
2021/04/18 11:13:35;;;;;;;2.90;1.30;;;;;;;25.71;27.09;96830.78;5064907;28;20547;-27
2021/04/18 11:16:01;;;;;;;1.67;1.20;;;;;;;25.72;27.23;96832.47;5066300;28;20024;-24
2021/04/18 11:18:26;;;;;;;2.72;1.50;;;;;;;25.74;27.25;96835.00;5065149;28;20621;-24
2021/04/18 11:20:52;;;;;;;2.53;1.13;;;;;;;25.74;27.16;96830.59;5068820;28;20453;-30
2021/04/18 11:23:18;;;;;;;2.47;1.25;;;;;;;25.74;27.14;96835.84;5063666;28;20226;-27
2021/04/18 11:25:44;;;;;;;2.65;1.10;;;;;;;25.75;27.28;96834.06;5065235;28;20043;-23
2021/04/18 11:28:09;;;;;;;1.67;1.13;;;;;;;25.74;27.20;96830.59;5068708;28;20105;-26
2021/04/18 11:30:35;;;;;;;2.55;1.17;;;;;;;25.75;27.32;96831.44;5064294;28;20507;-26
2021/04/18 11:33:01;;;;;;;2.75;1.30;;;;;;;25.75;27.39;96832.31;5068120;28;20118;-27